Time;durP1;ratioP1;P1;durP2;ratioP2;P2;SDS_P1;SDS_P2;PMS_P1;PMS_P2;Temp;Humidity;BMP_temperature;BMP_pressure;BME280_temperature;BME280_humidity;BME280_pressure;Samples;Min_cycle;Max_cycle;Signal;HPM_P1;HPM_P2
2023/02/28 00:02:20;;;;;;;3.60;2.87;;;1.10;1.00;;;;;;5014248;28;20902;-74
2023/02/28 00:04:52;;;;;;;3.60;3.00;;;1.10;99.90;;;;;;5014642;28;20396;-74
2023/02/28 00:07:18;;;;;;;3.70;3.30;;;1.00;99.90;;;;;;5013977;28;20475;-74
2023/02/28 00:09:44;;;;;;;2.92;2.60;;;1.00;99.90;;;;;;5046848;28;20408;-74
2023/02/28 00:12:10;;;;;;;2.70;2.50;;;1.00;99.90;;;;;;5014767;28;20394;-74
2023/02/28 00:14:36;;;;;;;3.70;2.90;;;1.10;99.90;;;;;;5012521;28;20401;-74
2023/02/28 00:17:02;;;;;;;3.22;2.92;;;0.90;99.90;;;;;;5013936;28;20771;-74
2023/02/28 00:19:27;;;;;;;4.05;3.30;;;1.10;99.90;;;;;;5013700;28;20393;-74
2023/02/28 00:21:53;;;;;;;3.33;3.00;;;1.00;99.90;;;;;;5014314;28;20886;-74
2023/02/28 00:24:18;;;;;;;3.50;3.13;;;1.20;99.90;;;;;;5013273;28;20411;-74
2023/02/28 00:26:44;;;;;;;5.50;3.50;;;1.40;99.90;;;;;;5012875;28;20409;-74
2023/02/28 00:29:10;;;;;;;3.40;3.10;;;;;;;;;;5014568;28;20481;-75
2023/02/28 00:31:36;;;;;;;3.37;3.07;;;;;;;;;;5014759;28;20751;-74
2023/02/28 00:34:01;;;;;;;4.30;3.20;;;1.20;99.90;;;;;;5014806;28;20805;-74
2023/02/28 00:36:27;;;;;;;3.10;2.80;;;1.20;99.90;;;;;;5012665;28;20484;-74
2023/02/28 00:38:52;;;;;;;5.00;3.50;;;1.10;99.90;;;;;;5011045;28;20480;-76
2023/02/28 00:41:18;;;;;;;3.30;3.00;;;;;;;;;;5014563;28;20402;-75
2023/02/28 00:43:44;;;;;;;3.00;2.80;;;1.20;99.90;;;;;;5012624;28;20396;-75
2023/02/28 00:46:09;;;;;;;3.77;3.00;;;1.60;99.90;;;;;;5013989;28;20523;-76
2023/02/28 00:48:35;;;;;;;3.25;2.80;;;1.20;1.00;;;;;;5014574;28;20747;-76
2023/02/28 00:51:01;;;;;;;3.50;3.20;;;1.20;99.90;;;;;;5014281;28;20396;-75
2023/02/28 00:53:27;;;;;;;3.10;2.80;;;1.20;99.90;;;;;;5014483;28;20515;-75
2023/02/28 00:55:53;;;;;;;3.40;3.10;;;1.20;99.90;;;;;;5014337;28;20468;-74
2023/02/28 00:58:18;;;;;;;4.70;3.45;;;1.40;99.90;;;;;;5014411;28;20397;-75
2023/02/28 01:00:48;;;;;;;3.60;3.30;;;1.00;99.90;;;;;;5013845;28;20824;-73
2023/02/28 01:03:18;;;;;;;3.45;3.15;;;1.20;1.00;;;;;;5012778;28;20467;-73
2023/02/28 01:05:44;;;;;;;4.60;3.07;;;1.30;99.90;;;;;;5012849;28;20434;-73
2023/02/28 01:08:09;;;;;;;3.13;2.72;;;2.00;99.90;;;;;;5012679;28;20400;-73
2023/02/28 01:10:36;;;;;;;3.50;3.20;;;1.20;99.90;;;;;;5012301;28;20841;-73
2023/02/28 01:13:02;;;;;;;4.97;3.35;;;1.30;1.00;;;;;;5013244;28;20401;-73
2023/02/28 01:15:27;;;;;;;3.80;3.10;;;1.30;99.90;;;;;;5012938;28;20970;-72
2023/02/28 01:17:53;;;;;;;3.50;3.20;;;1.60;1.00;;;;;;5012646;28;20389;-73
2023/02/28 01:20:19;;;;;;;3.80;3.33;;;1.30;99.90;;;;;;5014236;28;20466;-74
2023/02/28 01:22:44;;;;;;;3.88;3.47;;;1.20;99.90;;;;;;5011396;28;20760;-73
2023/02/28 01:25:10;;;;;;;3.70;3.20;;;1.20;1.00;;;;;;5012516;28;20798;-73
2023/02/28 01:27:35;;;;;;;3.60;3.30;;;1.30;99.90;;;;;;5012203;28;20808;-73
2023/02/28 01:30:02;;;;;;;3.65;3.30;;;1.40;99.90;;;;;;5012332;28;20484;-73
2023/02/28 01:32:27;;;;;;;4.90;3.58;;;1.20;1.00;;;;;;5012936;28;20875;-73
2023/02/28 01:34:53;;;;;;;4.65;3.45;;;1.10;1.00;;;;;;5013599;28;20423;-73
2023/02/28 01:37:18;;;;;;;3.65;3.30;;;1.30;99.90;;;;;;5012290;28;20404;-73
2023/02/28 01:39:44;;;;;;;3.30;3.00;;;1.40;99.90;;;;;;5013972;28;20385;-73
2023/02/28 01:42:10;;;;;;;3.88;3.35;;;1.50;1.00;;;;;;5012306;28;20395;-73
2023/02/28 01:44:53;;;;;;;3.90;3.60;;;1.20;1.00;;;;;;5012171;28;20399;-73
2023/02/28 01:47:20;;;;;;;3.80;3.50;;;1.50;1.00;;;;;;5011399;28;20391;-73
2023/02/28 01:49:46;;;;;;;3.53;3.22;;;1.10;99.90;;;;;;5011408;28;20889;-73
2023/02/28 01:52:17;;;;;;;3.63;3.33;;;1.20;99.90;;;;;;5011315;28;20403;-73
2023/02/28 01:54:46;;;;;;;4.90;3.40;;;1.30;1.00;;;;;;5011652;28;20902;-73
2023/02/28 01:57:16;;;;;;;4.03;3.63;;;1.10;99.90;;;;;;5011488;28;20419;-73
2023/02/28 02:00:22;;;;;;;4.10;3.70;;;1.10;1.00;;;;;;5012808;28;20862;-73
2023/02/28 02:02:52;;;;;;;3.40;3.10;;;1.40;99.90;;;;;;5010308;28;20416;-73
2023/02/28 02:05:21;;;;;;;5.03;3.45;;;1.20;1.00;;;;;;5012817;28;20397;-73
2023/02/28 02:07:54;;;;;;;3.47;3.17;;;1.20;1.00;;;;;;5011104;28;20408;-73
2023/02/28 02:10:32;;;;;;;4.68;3.55;;;1.20;1.00;;;;;;5007039;28;20410;-73
2023/02/28 02:13:12;;;;;;;3.40;3.00;;;1.40;1.00;;;;;;4992004;28;20413;-73
2023/02/28 02:16:15;;;;;;;4.00;3.40;;;1.30;1.00;;;;;;5001095;28;21034;-73
2023/02/28 02:18:53;;;;;;;4.00;3.20;;;1.10;1.00;;;;;;5011514;28;20865;-73
2023/02/28 02:21:35;;;;;;;4.13;3.72;;;1.30;1.00;;;;;;5011227;28;20395;-73
2023/02/28 02:24:47;;;;;;;3.90;3.60;;;1.20;1.00;;;;;;5011135;28;20976;-73
2023/02/28 02:27:39;;;;;;;4.22;3.60;;;1.40;1.00;;;;;;5010948;28;20496;-73
2023/02/28 02:30:19;;;;;;;4.00;3.70;;;1.60;1.00;;;;;;5010946;28;20428;-73
2023/02/28 02:33:10;;;;;;;4.15;3.55;;;1.20;1.00;;;;;;5011142;28;20404;-73
2023/02/28 02:35:55;;;;;;;4.15;3.70;;;1.20;1.00;;;;;;5011248;28;20404;-73
2023/02/28 02:38:34;;;;;;;3.70;3.27;;;1.30;1.00;;;;;;5012794;28;20891;-73
2023/02/28 02:41:16;;;;;;;3.63;3.30;;;1.20;1.00;;;;;;5011334;28;20392;-73
2023/02/28 02:43:50;;;;;;;3.53;3.23;;;1.40;1.00;;;;;;4991462;28;20447;-73
2023/02/28 02:46:23;;;;;;;3.60;3.30;;;1.10;1.00;;;;;;4990012;28;20398;-73
2023/02/28 02:48:51;;;;;;;3.67;3.38;;;1.20;1.00;;;;;;4991664;28;20445;-74
2023/02/28 02:51:20;;;;;;;3.40;3.10;;;1.20;1.00;;;;;;5009024;28;20480;-73
2023/02/28 02:53:58;;;;;;;3.50;3.20;;;1.10;1.00;;;;;;5011151;28;20471;-73
2023/02/28 02:56:28;;;;;;;3.67;3.37;;;1.50;1.00;;;;;;5010837;28;20385;-73
2023/02/28 02:58:58;;;;;;;3.72;3.30;;;1.40;1.00;;;;;;5011348;28;20416;-73
2023/02/28 03:01:28;;;;;;;3.50;3.17;;;1.10;1.00;;;;;;5012196;28;20540;-73
2023/02/28 03:03:57;;;;;;;3.97;3.67;;;0.70;1.00;;;;;;5016296;28;20953;-73
2023/02/28 03:06:24;;;;;;;3.67;3.20;;;1.20;1.00;;;;;;5015945;28;20496;-73
2023/02/28 03:08:50;;;;;;;3.80;3.50;;;1.40;1.00;;;;;;5015723;28;20492;-73
2023/02/28 03:11:16;;;;;;;3.80;3.50;;;1.30;1.00;;;;;;5014843;28;20483;-73
2023/02/28 03:14:13;;;;;;;3.40;3.17;;;1.20;1.00;;;;;;5014729;28;20399;-73
2023/02/28 03:16:46;;;;;;;3.72;3.42;;;1.30;1.00;;;;;;5039515;28;20405;-73
2023/02/28 03:19:30;;;;;;;4.10;3.70;;;1.10;1.00;;;;;;5015052;28;20376;-73
2023/02/28 03:22:20;;;;;;;3.70;3.30;;;1.40;1.00;;;;;;5013571;28;20453;-73
2023/02/28 03:24:57;;;;;;;4.20;3.40;;;1.20;1.00;;;;;;5014926;28;20392;-73
2023/02/28 03:27:42;;;;;;;3.53;3.22;;;1.20;1.00;;;;;;5014315;28;20396;-73
2023/02/28 03:30:11;;;;;;;3.90;3.10;;;1.20;12.60;;;;;;4993733;28;20749;-73
2023/02/28 03:32:45;;;;;;;3.60;3.05;;;1.30;1.00;;;;;;5015261;28;20396;-73
2023/02/28 03:35:21;;;;;;;4.00;3.60;;;1.40;1.00;;;;;;5013571;28;20448;-73
2023/02/28 03:37:50;;;;;;;3.50;3.20;;;1.30;1.00;;;;;;4995237;28;20759;-74
2023/02/28 03:40:21;;;;;;;3.50;3.20;;;1.50;1.00;;;;;;4996343;28;20892;-73
2023/02/28 03:42:51;;;;;;;3.88;3.58;;;1.10;99.90;;;;;;5014701;28;20396;-73
2023/02/28 03:45:20;;;;;;;3.25;2.95;;;1.10;99.90;;;;;;5015661;28;20414;-73
2023/02/28 03:47:54;;;;;;;3.58;3.28;;;1.20;1.00;;;;;;5013679;28;20392;-73
2023/02/28 03:50:39;;;;;;;3.20;2.90;;;1.00;1.00;;;;;;5015087;28;20584;-74
2023/02/28 03:53:12;;;;;;;3.45;3.15;;;1.30;1.00;;;;;;5015737;28;20804;-73
2023/02/28 03:55:43;;;;;;;4.07;3.50;;;1.10;1.00;;;;;;5015003;28;20886;-73
2023/02/28 03:58:41;;;;;;;3.58;3.28;;;1.10;1.00;;;;;;5013793;28;20442;-73
2023/02/28 04:01:18;;;;;;;4.35;3.60;;;0.70;1.00;;;;;;5007973;28;20389;-74
2023/02/28 04:03:44;;;;;;;3.90;3.50;;;0.90;1.00;;;;;;5014977;28;20396;-73
2023/02/28 04:06:16;;;;;;;3.60;3.30;;;1.20;1.00;;;;;;5015168;28;20435;-73
2023/02/28 04:08:42;;;;;;;3.45;3.10;;;0.90;1.00;;;;;;5014585;28;20393;-74
2023/02/28 04:11:20;;;;;;;3.33;3.03;;;1.10;1.00;;;;;;5014140;28;20389;-73
2023/02/28 04:13:46;;;;;;;3.17;2.97;;;0.80;1.00;;;;;;5014012;28;20401;-73
2023/02/28 04:16:12;;;;;;;4.07;3.30;;;2.30;44.60;;;;;;5014518;28;20405;-73
2023/02/28 04:18:39;;;;;;;3.70;3.30;;;0.80;1.00;;;;;;5017042;28;20389;-74
2023/02/28 04:21:05;;;;;;;3.70;3.40;;;1.00;99.90;;;;;;5014483;28;20385;-73
2023/02/28 04:23:31;;;;;;;3.60;3.03;;;0.90;1.00;;;;;;5014359;28;20388;-74
2023/02/28 04:25:56;;;;;;;3.70;3.40;;;0.90;99.90;;;;;;5014620;28;20484;-73
2023/02/28 04:28:22;;;;;;;3.60;3.30;;;0.80;1.00;;;;;;5014938;28;20767;-74
2023/02/28 04:30:53;;;;;;;4.03;3.73;;;2.20;99.90;;;;;;5013853;28;20403;-73
2023/02/28 04:33:19;;;;;;;3.90;3.60;;;0.90;1.00;;;;;;5015348;28;20443;-73
2023/02/28 04:35:44;;;;;;;4.30;3.90;;;0.80;1.00;;;;;;5014606;28;20451;-73
2023/02/28 04:38:10;;;;;;;4.30;3.90;;;0.90;1.00;;;;;;5013914;28;20392;-73
2023/02/28 04:40:35;;;;;;;4.07;3.67;;;0.90;99.90;;;;;;5013998;28;20401;-73
2023/02/28 04:43:01;;;;;;;3.83;3.53;;;0.50;1.00;;;;;;5013931;28;20480;-73
2023/02/28 04:45:29;;;;;;;5.33;3.30;;;0.60;99.90;;;;;;5013113;28;20435;-73
2023/02/28 04:47:55;;;;;;;3.90;3.40;;;0.70;1.00;;;;;;5013567;28;20765;-73
2023/02/28 04:50:20;;;;;;;4.17;3.77;;;0.70;1.00;;;;;;5013893;28;20392;-73
2023/02/28 04:52:46;;;;;;;3.90;3.50;;;0.80;1.00;;;;;;5013258;28;20412;-73
2023/02/28 04:55:12;;;;;;;3.75;3.45;;;0.30;1.00;;;;;;5013398;28;20412;-73
2023/02/28 04:57:37;;;;;;;4.03;3.63;;;0.10;11.10;;;;;;5013379;28;20407;-73
2023/02/28 05:00:06;;;;;;;3.75;3.45;;;0.40;1.00;;;;;;5013758;28;20446;-73
2023/02/28 05:02:35;;;;;;;4.45;4.05;;;0.40;99.90;;;;;;5013815;28;20759;-73
2023/02/28 05:05:00;;;;;;;5.63;4.43;;;0.40;21.20;;;;;;5013377;28;20428;-73
2023/02/28 05:07:26;;;;;;;5.37;3.77;;;0.50;1.00;;;;;;5013586;28;20450;-74
2023/02/28 05:09:51;;;;;;;4.50;4.10;;;0.40;99.90;;;;;;5016960;28;20411;-73
2023/02/28 05:12:17;;;;;;;4.67;4.13;;;0.40;99.90;;;;;;5014406;28;20771;-73
2023/02/28 05:14:43;;;;;;;4.10;3.70;;;0.30;99.90;;;;;;5014157;28;20407;-74
2023/02/28 05:17:10;;;;;;;4.20;3.80;;;0.00;99.90;;;;;;5013869;28;20385;-73
2023/02/28 05:19:35;;;;;;;4.18;3.78;;;0.20;99.90;;;;;;5013694;28;20467;-74
2023/02/28 05:22:01;;;;;;;4.47;4.10;;;0.30;1.00;;;;;;5012823;28;20416;-74
2023/02/28 05:24:26;;;;;;;4.47;4.07;;;0.20;1.00;;;;;;5013065;28;20901;-74
2023/02/28 05:26:53;;;;;;;4.30;3.90;;;0.40;1.00;;;;;;5040946;22;20943;-78
2023/02/28 05:29:19;;;;;;;4.70;4.20;;;0.20;1.00;;;;;;5061985;28;20384;-78
2023/02/28 05:31:44;;;;;;;4.70;4.20;;;0.10;1.00;;;;;;5061168;28;20828;-78
2023/02/28 05:34:12;;;;;;;4.87;4.47;;;0.00;1.00;;;;;;5061123;28;20486;-78
2023/02/28 05:36:38;;;;;;;4.30;3.90;;;0.20;1.00;;;;;;5057140;28;20401;-78
2023/02/28 05:39:07;;;;;;;4.72;4.18;;;0.30;1.00;;;;;;5042307;28;20399;-77
2023/02/28 05:41:32;;;;;;;4.30;4.00;;;0.00;1.00;;;;;;5040063;28;20390;-78
2023/02/28 05:43:59;;;;;;;4.60;4.20;;;0.00;1.00;;;;;;5040243;28;20455;-78
2023/02/28 05:46:25;;;;;;;5.10;4.70;;;0.20;1.00;;;;;;5041076;28;20379;-78
2023/02/28 05:48:50;;;;;;;4.57;4.18;;;0.40;1.00;;;;;;5040118;28;20410;-79
2023/02/28 05:51:17;;;;;;;6.30;4.40;;;0.00;1.00;;;;;;5045538;28;20402;-78
2023/02/28 05:53:43;;;;;;;5.82;4.72;;;0.00;1.00;;;;;;5050751;28;20390;-79
2023/02/28 05:56:09;;;;;;;5.85;4.30;;;0.10;1.00;;;;;;5044378;28;20479;-79
2023/02/28 05:58:34;;;;;;;5.43;4.93;;;-0.20;35.40;;;;;;5042967;28;20432;-79
2023/02/28 06:01:18;;;;;;;5.10;4.60;;;-0.30;37.00;;;;;;5042317;28;20773;-79
2023/02/28 06:03:43;;;;;;;5.10;4.60;;;0.20;58.90;;;;;;5040139;28;20474;-79
2023/02/28 06:06:09;;;;;;;5.28;4.78;;;-0.20;92.90;;;;;;5041684;28;20419;-79
2023/02/28 06:08:34;;;;;;;5.30;4.80;;;-0.10;46.80;;;;;;5041473;28;20430;-79
2023/02/28 06:11:03;;;;;;;5.65;4.90;;;-0.20;99.90;;;;;;5040702;28;20375;-79
2023/02/28 06:13:29;;;;;;;4.70;4.30;;;-0.30;93.10;;;;;;5041960;28;20387;-79
2023/02/28 06:15:54;;;;;;;5.00;4.50;;;-0.30;99.90;;;;;;5040926;28;20402;-80
2023/02/28 06:18:20;;;;;;;5.77;4.90;;;-0.10;88.30;;;;;;5034992;28;20468;-79
2023/02/28 06:20:54;;;;;;;6.10;4.63;;;-0.20;81.50;;;;;;5032468;28;20810;-78
2023/02/28 06:23:20;;;;;;;4.80;4.30;;;-0.20;93.40;;;;;;5039819;28;20387;-79
2023/02/28 06:25:46;;;;;;;4.97;4.50;;;-0.20;61.20;;;;;;5042119;28;20387;-80
2023/02/28 06:28:12;;;;;;;5.20;4.70;;;-0.40;42.60;;;;;;5041350;28;20801;-80
2023/02/28 06:30:39;;;;;;;4.80;4.40;;;0.10;97.40;;;;;;5039510;28;20399;-79
2023/02/28 06:33:05;;;;;;;5.28;4.70;;;-0.20;56.80;;;;;;5039979;28;20384;-79
2023/02/28 06:35:30;;;;;;;4.82;4.30;;;-0.10;36.00;;;;;;5042630;28;20426;-80
2023/02/28 06:37:56;;;;;;;5.20;4.70;;;0.00;8.30;;;;;;5040598;28;20395;-79
2023/02/28 06:40:22;;;;;;;4.65;4.25;;;0.00;1.00;;;;;;5036886;28;20394;-78
2023/02/28 06:42:47;;;;;;;5.30;4.30;;;0.20;1.00;;;;;;5037292;28;20841;-78
2023/02/28 06:45:13;;;;;;;6.60;4.73;;;0.00;1.00;;;;;;5039350;28;20916;-78
2023/02/28 06:47:40;;;;;;;5.27;4.80;;;1.40;3.90;;;;;;5041657;28;20402;-79
2023/02/28 06:50:11;;;;;;;4.88;4.38;;;0.00;1.00;;;;;;5042367;28;20885;-79
2023/02/28 06:52:37;;;;;;;5.00;4.60;;;0.20;1.00;;;;;;5041878;28;20432;-78
2023/02/28 06:55:05;;;;;;;4.80;4.40;;;0.30;1.00;;;;;;5041774;28;20410;-78
2023/02/28 06:57:31;;;;;;;5.10;4.70;;;0.40;1.00;;;;;;5046851;28;20398;-78
2023/02/28 07:00:04;;;;;;;4.97;4.57;;;0.10;1.00;;;;;;5049934;28;20394;-78
2023/02/28 07:02:29;;;;;;;6.03;4.15;;;0.40;1.00;;;;;;5049212;28;20379;-78
2023/02/28 07:04:55;;;;;;;4.50;4.10;;;;;;;;;;5046395;28;20963;-78
2023/02/28 07:07:21;;;;;;;5.30;4.80;;;0.80;1.00;;;;;;5029336;28;20389;-79
2023/02/28 07:09:47;;;;;;;4.47;4.07;;;0.40;1.00;;;;;;5022163;28;20398;-78
2023/02/28 07:12:12;;;;;;;4.50;4.10;;;0.60;1.00;;;;;;5022005;28;20392;-78
2023/02/28 07:14:38;;;;;;;4.10;3.77;;;0.30;1.00;;;;;;5019755;28;20408;-78
2023/02/28 07:17:03;;;;;;;4.60;4.20;;;0.60;1.00;;;;;;5023535;28;20494;-80
2023/02/28 07:19:29;;;;;;;4.00;3.60;;;0.70;1.00;;;;;;5040775;28;20383;-78
2023/02/28 07:21:54;;;;;;;4.60;4.10;;;0.70;1.00;;;;;;5041288;28;20877;-77
2023/02/28 07:24:20;;;;;;;4.80;4.40;;;1.20;1.00;;;;;;5041307;28;20399;-78
2023/02/28 07:26:46;;;;;;;4.20;3.80;;;0.70;99.90;;;;;;5041102;28;20406;-78
2023/02/28 07:29:11;;;;;;;4.88;4.38;;;0.60;1.00;;;;;;5041877;28;20399;-78
2023/02/28 07:31:39;;;;;;;5.20;4.70;;;0.70;99.90;;;;;;5041433;28;22175;-78
2023/02/28 07:34:05;;;;;;;4.50;4.10;;;0.90;99.90;;;;;;5040016;28;20486;-79
2023/02/28 07:36:30;;;;;;;4.97;4.53;;;0.80;1.00;;;;;;5039889;28;20430;-79
2023/02/28 07:38:57;;;;;;;4.67;4.27;;;0.70;99.90;;;;;;5045971;28;20469;-80
2023/02/28 07:41:24;;;;;;;4.97;4.47;;;0.60;1.00;;;;;;5037774;28;20458;-78
2023/02/28 07:43:54;;;;;;;4.50;4.10;;;0.80;99.90;;;;;;5038125;28;20388;-77
2023/02/28 07:46:21;;;;;;;5.20;4.70;;;1.20;8.50;;;;;;5037173;28;20762;-78
2023/02/28 07:48:46;;;;;;;5.70;5.20;;;1.20;99.90;;;;;;5041703;28;20390;-78
2023/02/28 07:51:12;;;;;;;5.80;4.93;;;1.30;61.30;;;;;;5043851;28;20884;-78
2023/02/28 07:53:38;;;;;;;5.25;4.75;;;1.30;99.90;;;;;;5045429;28;20407;-79
2023/02/28 07:56:04;;;;;;;5.40;4.90;;;1.10;1.00;;;;;;5044305;28;20465;-78
2023/02/28 07:58:30;;;;;;;6.07;5.47;;;1.30;99.90;;;;;;5041804;28;20391;-79
2023/02/28 08:00:56;;;;;;;5.25;4.75;;;3.10;99.90;;;;;;5043037;28;20387;-78
2023/02/28 08:03:23;;;;;;;5.40;4.90;;;1.70;1.00;;;;;;5042890;28;20436;-79
2023/02/28 08:05:49;;;;;;;5.72;5.22;;;1.70;99.90;;;;;;5042275;28;20410;-78
2023/02/28 08:08:15;;;;;;;5.45;5.00;;;1.60;99.90;;;;;;5041696;28;20399;-78
2023/02/28 08:10:41;;;;;;;7.75;5.18;;;1.70;24.20;;;;;;5044949;28;20406;-78
2023/02/28 08:13:07;;;;;;;7.33;5.90;;;1.80;1.00;;;;;;5043929;28;20391;-78
2023/02/28 08:15:33;;;;;;;6.55;5.43;;;1.60;1.00;;;;;;5044881;28;20403;-78
2023/02/28 08:17:58;;;;;;;6.10;5.50;;;1.70;46.90;;;;;;5043655;28;20430;-78
2023/02/28 08:20:24;;;;;;;6.20;5.60;;;2.10;99.90;;;;;;5043357;28;20439;-77
2023/02/28 08:22:50;;;;;;;6.38;5.78;;;2.10;1.00;;;;;;5043667;28;20387;-78
2023/02/28 08:25:16;;;;;;;6.97;6.28;;;2.00;1.00;;;;;;5044096;28;20449;-79
2023/02/28 08:27:41;;;;;;;6.35;5.68;;;2.10;1.00;;;;;;5042454;28;20402;-77
2023/02/28 08:30:10;;;;;;;6.30;5.70;;;1.80;1.00;;;;;;5043480;28;20439;-78
2023/02/28 08:32:35;;;;;;;6.25;5.65;;;1.90;99.90;;;;;;5043407;28;20401;-78
2023/02/28 08:35:02;;;;;;;6.50;5.90;;;1.70;1.00;;;;;;5042582;28;20414;-77
2023/02/28 08:37:28;;;;;;;6.13;5.60;;;2.10;1.00;;;;;;5042627;28;20788;-78
2023/02/28 08:39:54;;;;;;;7.03;6.23;;;1.80;1.00;;;;;;5047420;28;20390;-79
2023/02/28 08:42:20;;;;;;;6.90;6.13;;;2.30;99.90;;;;;;5052489;28;20446;-79
2023/02/28 08:44:45;;;;;;;6.45;5.85;;;2.30;99.90;;;;;;5046058;28;20391;-79
2023/02/28 08:47:11;;;;;;;5.80;5.30;;;2.40;99.90;;;;;;5041589;28;20400;-79
2023/02/28 08:49:37;;;;;;;6.90;6.00;;;2.30;1.00;;;;;;5042757;28;20398;-79
2023/02/28 08:52:03;;;;;;;6.95;6.25;;;2.50;1.00;;;;;;5036847;28;20389;-77
2023/02/28 08:54:31;;;;;;;6.53;5.90;;;2.40;1.00;;;;;;5035410;28;20403;-77
2023/02/28 08:56:56;;;;;;;6.50;5.90;;;2.60;11.30;;;;;;5034351;28;20391;-77
2023/02/28 08:59:22;;;;;;;7.15;5.93;;;2.50;1.00;;;;;;5033665;28;20456;-77
2023/02/28 09:01:48;;;;;;;6.40;5.80;;;2.60;1.00;;;;;;5039012;28;20395;-78
2023/02/28 09:04:14;;;;;;;6.63;6.00;;;2.40;1.00;;;;;;5040211;28;20453;-77
2023/02/28 09:06:39;;;;;;;6.45;5.10;;;2.60;1.00;;;;;;5038474;28;20399;-78
2023/02/28 09:09:07;;;;;;;6.30;5.70;;;2.20;1.00;;;;;;5040484;28;20391;-77
2023/02/28 09:11:34;;;;;;;6.30;5.70;;;2.10;1.00;;;;;;5041558;28;20397;-77
2023/02/28 09:14:00;;;;;;;7.38;6.20;;;2.20;1.00;;;;;;5040659;28;20409;-78
2023/02/28 09:16:26;;;;;;;6.35;5.78;;;2.60;1.00;;;;;;5038729;28;20418;-77
2023/02/28 09:18:52;;;;;;;6.40;5.80;;;2.10;1.00;;;;;;5041932;28;20432;-78
2023/02/28 09:21:19;;;;;;;6.10;5.30;;;2.40;1.00;;;;;;5043209;28;20414;-77
2023/02/28 09:23:46;;;;;;;6.38;5.70;;;2.30;1.00;;;;;;5038944;28;20393;-77
2023/02/28 09:26:17;;;;;;;6.70;6.00;;;2.10;1.00;;;;;;5037807;28;20393;-77
2023/02/28 09:28:43;;;;;;;6.32;5.60;;;4.40;1.00;;;;;;5043819;28;20440;-77
2023/02/28 09:31:20;;;;;;;6.50;5.80;;;3.30;80.10;;;;;;5049155;28;20395;-78
2023/02/28 09:33:46;;;;;;;6.32;5.72;;;3.10;1.00;;;;;;5047494;28;20435;-78
2023/02/28 09:36:12;;;;;;;6.88;6.20;;;2.50;1.00;;;;;;5044279;28;20387;-78
2023/02/28 09:38:38;;;;;;;8.25;6.15;;;3.10;1.00;;;;;;5047648;28;20504;-79
2023/02/28 09:41:13;;;;;;;6.97;6.25;;;2.60;1.00;;;;;;5048828;28;20702;-79
2023/02/28 09:43:43;;;;;;;7.43;6.30;;;2.30;1.00;;;;;;5046308;28;20432;-79
2023/02/28 09:46:21;;;;;;;7.57;6.72;;;1.60;1.00;;;;;;5041481;28;20441;-78
2023/02/28 09:48:49;;;;;;;7.07;6.38;;;2.70;1.00;;;;;;5044940;28;20442;-78
2023/02/28 09:51:43;;;;;;;6.82;6.20;;;3.60;1.00;;;;;;5045502;28;20391;-78
2023/02/28 09:54:24;;;;;;;8.30;6.53;;;2.90;1.00;;;;;;5024025;28;20423;-78
2023/02/28 09:57:18;;;;;;;6.90;6.20;;;2.80;1.00;;;;;;5019551;28;20397;-79
2023/02/28 09:59:59;;;;;;;6.88;6.18;;;2.90;1.00;;;;;;5019963;28;20447;-77
2023/02/28 10:02:41;;;;;;;6.97;5.90;;;3.10;1.00;;;;;;5037341;28;20395;-78
2023/02/28 10:05:14;;;;;;;6.50;5.77;;;3.10;1.00;;;;;;5040143;28;20415;-78
2023/02/28 10:08:09;;;;;;;7.35;6.38;;;3.40;1.00;;;;;;5037802;28;20403;-77
2023/02/28 10:10:40;;;;;;;9.07;5.75;;;3.20;1.00;;;;;;5041880;28;20395;-79
2023/02/28 10:13:25;;;;;;;9.63;6.40;;;3.40;1.00;;;;;;5040715;28;20403;-79
2023/02/28 10:15:56;;;;;;;7.03;6.32;;;3.70;1.00;;;;;;5039733;28;20418;-79
2023/02/28 10:18:27;;;;;;;8.50;6.30;;;3.50;1.00;;;;;;5036824;28;20399;-77
2023/02/28 10:20:55;;;;;;;6.40;5.80;;;3.70;1.00;;;;;;5040720;28;20402;-79
2023/02/28 10:23:27;;;;;;;7.43;6.38;;;3.80;1.00;;;;;;5037588;28;20398;-77
2023/02/28 10:26:05;;;;;;;7.03;6.20;;;3.60;1.00;;;;;;5036500;28;21079;-77
2023/02/28 10:28:31;;;;;;;6.10;5.60;;;3.80;1.00;;;;;;5020307;28;20950;-78
2023/02/28 10:30:58;;;;;;;7.35;6.07;;;3.70;1.00;;;;;;5022789;28;20396;-77
2023/02/28 10:33:30;;;;;;;8.10;6.32;;;3.70;1.00;;;;;;5020242;28;20389;-78
2023/02/28 10:35:55;;;;;;;7.68;6.85;;;3.70;1.00;;;;;;5024102;28;20401;-78
2023/02/28 10:38:24;;;;;;;6.57;5.97;;;3.90;1.00;;;;;;5025883;28;20410;-79
2023/02/28 10:40:50;;;;;;;6.93;6.30;;;3.80;1.00;;;;;;5040710;28;20395;-79
2023/02/28 10:43:18;;;;;;;7.70;6.75;;;4.10;1.00;;;;;;5041909;28;20489;-79
2023/02/28 10:45:56;;;;;;;7.18;6.38;;;4.10;99.90;;;;;;5042049;28;20422;-78
2023/02/28 10:48:21;;;;;;;7.00;6.32;;;4.00;1.00;;;;;;5035215;28;20390;-77
2023/02/28 10:50:46;;;;;;;6.80;6.20;;;4.20;1.00;;;;;;5040406;28;20463;-78
2023/02/28 10:53:28;;;;;;;6.68;6.07;;;4.50;1.00;;;;;;5040397;28;20904;-80
2023/02/28 10:56:09;;;;;;;8.27;6.10;;;4.50;99.90;;;;;;5040571;28;20406;-79
2023/02/28 10:59:05;;;;;;;6.93;6.22;;;4.50;1.00;;;;;;5040396;28;20383;-79
2023/02/28 11:01:37;;;;;;;6.82;6.22;;;4.80;99.90;;;;;;5039213;28;20465;-79
2023/02/28 11:04:16;;;;;;;7.05;6.35;;;5.20;99.90;;;;;;5038946;28;20388;-79
2023/02/28 11:06:42;;;;;;;6.70;5.85;;;5.30;99.90;;;;;;5043035;28;20379;-78
2023/02/28 11:09:25;;;;;;;6.20;5.70;;;5.30;99.90;;;;;;5047716;28;20890;-79
2023/02/28 11:11:52;;;;;;;7.13;6.43;;;5.40;99.90;;;;;;5039458;28;20390;-79
2023/02/28 11:14:25;;;;;;;7.25;6.40;;;5.60;99.90;;;;;;5042063;28;20410;-79
2023/02/28 11:16:52;;;;;;;6.70;6.10;;;5.20;99.90;;;;;;5039319;28;20418;-79
2023/02/28 11:19:25;;;;;;;6.82;6.22;;;4.90;99.90;;;;;;5039856;28;20419;-79
2023/02/28 11:22:02;;;;;;;6.57;5.88;;;5.00;99.90;;;;;;5040804;28;20390;-79
2023/02/28 11:24:33;;;;;;;7.10;6.30;;;5.90;99.90;;;;;;5042649;28;20408;-79
2023/02/28 11:26:59;;;;;;;6.68;6.05;;;6.20;99.90;;;;;;5043006;28;20477;-78
2023/02/28 11:29:28;;;;;;;6.70;6.10;;;5.70;99.90;;;;;;5044106;28;20404;-78
2023/02/28 11:32:12;;;;;;;7.17;6.47;;;7.60;99.90;;;;;;5044717;28;20479;-79
2023/02/28 11:34:39;;;;;;;6.90;6.30;;;7.20;99.90;;;;;;5045601;28;20407;-78
2023/02/28 11:37:10;;;;;;;6.78;6.07;;;7.30;99.90;;;;;;5045127;28;20383;-79
2023/02/28 11:39:36;;;;;;;6.50;5.90;;;7.90;99.90;;;;;;5045858;28;20463;-79
2023/02/28 11:42:26;;;;;;;6.73;6.13;;;7.80;99.90;;;;;;5046379;28;20390;-79
2023/02/28 11:45:22;;;;;;;6.28;5.68;;;7.90;99.90;;;;;;5045475;28;20387;-79
2023/02/28 11:48:01;;;;;;;8.05;6.18;;;7.50;99.90;;;;;;5042126;28;20468;-79
2023/02/28 11:50:32;;;;;;;7.35;6.55;;;7.60;99.90;;;;;;5044752;28;20386;-79
2023/02/28 11:53:23;;;;;;;6.53;5.88;;;8.30;99.90;;;;;;5042717;28;20414;-79
2023/02/28 11:56:18;;;;;;;7.15;6.45;;;7.00;99.90;;;;;;5043743;28;20424;-79
2023/02/28 11:58:44;;;;;;;7.00;6.40;;;6.70;99.90;;;;;;4995385;28;20883;-79
2023/02/28 12:01:26;;;;;;;8.02;6.57;;;5.80;99.90;;;;;;5024802;28;20397;-78
2023/02/28 12:04:11;;;;;;;6.30;5.70;;;5.50;99.90;;;;;;5022635;28;20980;-77
2023/02/28 12:06:40;;;;;;;6.80;6.20;;;6.00;99.90;;;;;;5029456;28;20386;-79
2023/02/28 12:09:38;;;;;;;6.97;6.10;;;5.70;99.90;;;;;;5045127;28;20512;-79
2023/02/28 12:12:21;;;;;;;6.75;6.15;;;5.50;99.90;;;;;;5021243;28;20391;-79
2023/02/28 12:15:17;;;;;;;6.57;5.97;;;5.40;99.90;;;;;;5043708;28;20486;-79
2023/02/28 12:17:49;;;;;;;7.05;6.45;;;5.50;99.90;;;;;;5042915;28;20395;-78
2023/02/28 12:20:46;;;;;;;7.32;6.72;;;4.90;99.90;;;;;;5044251;28;20422;-79
2023/02/28 12:23:47;;;;;;;7.67;6.97;;;5.60;99.90;;;;;;5043878;28;20480;-79
2023/02/28 12:26:33;;;;;;;6.70;6.10;;;5.00;99.90;;;;;;5027239;28;20490;-79
2023/02/28 12:29:23;;;;;;;7.47;6.78;;;5.10;99.90;;;;;;5044969;28;20478;-78
2023/02/28 12:32:07;;;;;;;7.70;6.90;;;5.10;99.90;;;;;;5029863;28;20387;-78
2023/02/28 12:34:44;;;;;;;7.20;6.50;;;4.90;99.90;;;;;;5044084;28;20403;-79
2023/02/28 12:37:22;;;;;;;7.10;6.40;;;4.90;99.90;;;;;;5043946;28;20421;-79
2023/02/28 12:39:55;;;;;;;7.30;6.60;;;5.00;99.90;;;;;;5042649;28;20427;-79
2023/02/28 12:42:29;;;;;;;6.93;6.22;;;5.10;99.90;;;;;;5043926;28;20505;-78
2023/02/28 12:45:08;;;;;;;8.30;7.40;;;5.30;99.90;;;;;;5047334;28;20387;-79
2023/02/28 12:47:34;;;;;;;8.15;7.35;;;5.50;99.90;;;;;;5044121;28;20792;-79
2023/02/28 12:50:11;;;;;;;8.30;7.40;;;5.80;99.90;;;;;;5044498;28;20425;-78
2023/02/28 12:53:05;;;;;;;7.50;6.80;;;6.40;99.90;;;;;;5044066;28;20800;-80
2023/02/28 12:55:41;;;;;;;7.70;7.00;;;7.10;99.90;;;;;;5043889;28;20418;-79
2023/02/28 12:58:25;;;;;;;7.45;6.75;;;6.70;99.90;;;;;;5042879;28;20768;-78
2023/02/28 13:01:10;;;;;;;8.90;8.00;;;6.20;99.90;;;;;;5045085;28;20390;-79
2023/02/28 13:04:20;;;;;;;7.80;7.00;;;6.10;99.90;;;;;;5045061;28;20439;-79
2023/02/28 13:07:04;;;;;;;7.50;6.70;;;6.20;99.90;;;;;;5042536;28;20375;-79
2023/02/28 13:09:30;;;;;;;7.13;6.43;;;6.10;99.90;;;;;;5045960;28;20391;-80
2023/02/28 13:11:57;;;;;;;7.60;6.90;;;6.60;99.90;;;;;;5043717;28;20391;-79
2023/02/28 13:14:32;;;;;;;7.50;6.90;;;6.40;99.90;;;;;;5043490;28;20495;-78
2023/02/28 13:17:10;;;;;;;7.95;7.15;;;6.50;99.90;;;;;;5044764;28;20441;-79
2023/02/28 13:19:41;;;;;;;7.60;6.22;;;6.20;99.90;;;;;;5047977;28;20379;-79
2023/02/28 13:22:19;;;;;;;8.02;7.10;;;6.70;99.90;;;;;;5044382;28;20423;-79
2023/02/28 13:24:53;;;;;;;7.10;6.40;;;6.50;99.90;;;;;;5044125;28;20447;-77